Time;durP1;ratioP1;P1;durP2;ratioP2;P2;SDS_P1;SDS_P2;PMS_P1;PMS_P2;Temp;Humidity;BMP_temperature;BMP_pressure;BME280_temperature;BME280_humidity;BME280_pressure;Samples;Min_cycle;Max_cycle;Signal;HPM_P1;HPM_P2
2023/08/13 00:02:23;;;;;;;7.03;5.25;;;;;;;22.58;88.83;99642.97;5033570;28;20083;-86
2023/08/13 00:04:48;;;;;;;5.18;4.68;;;;;;;22.54;89.50;99638.94;5033501;28;20034;-85
2023/08/13 00:07:14;;;;;;;7.88;5.00;;;;;;;22.47;89.63;99630.75;5033659;28;20084;-86
2023/08/13 00:09:42;;;;;;;5.13;4.63;;;;;;;22.44;89.21;99630.19;5033095;28;20029;-86
2023/08/13 00:12:08;;;;;;;5.00;4.50;;;;;;;22.33;89.06;99616.16;5015361;28;20021;-86
2023/08/13 00:14:33;;;;;;;6.05;5.00;;;;;;;22.49;89.31;99652.66;5032790;28;20025;-86
2023/08/13 00:16:58;;;;;;;5.75;4.93;;;;;;;22.39;89.51;99636.78;5033275;28;20174;-85
2023/08/13 00:19:24;;;;;;;4.97;4.47;;;;;;;22.44;90.27;99652.25;5032979;28;20036;-86
2023/08/13 00:21:49;;;;;;;5.75;5.18;;;;;;;22.42;90.67;99652.41;5033102;28;20433;-86
2023/08/13 00:24:15;;;;;;;5.63;4.72;;;;;;;22.41;90.17;99650.72;5033350;28;20512;-86
2023/08/13 00:26:41;;;;;;;5.15;4.65;;;;;;;22.36;90.23;99650.34;5014931;28;20520;-85
2023/08/13 00:29:08;;;;;;;6.07;4.78;;;;;;;22.31;89.89;99654.41;5015030;28;20168;-86
2023/08/13 00:31:33;;;;;;;9.45;5.80;;;;;;;22.25;90.51;99653.19;5032633;28;20029;-86
2023/08/13 00:33:59;;;;;;;8.27;5.35;;;;;;;22.29;91.09;99659.88;5033190;28;20026;-85
2023/08/13 00:36:24;;;;;;;5.80;5.20;;;;;;;22.28;91.41;99662.66;5014786;28;20377;-85
2023/08/13 00:38:49;;;;;;;6.40;5.70;;;;;;;22.17;91.36;99647.78;5032701;28;20068;-86
2023/08/13 00:41:15;;;;;;;5.72;5.03;;;;;;;22.18;91.50;99646.78;5032723;28;20021;-86
2023/08/13 00:43:40;;;;;;;7.97;5.55;;;;;;;22.19;91.15;99652.94;5032375;28;20614;-85
2023/08/13 00:46:07;;;;;;;5.72;5.13;;;;;;;22.27;91.88;99668.97;5032795;28;20021;-86
2023/08/13 00:48:33;;;;;;;7.30;6.60;;;;;;;22.25;92.11;99671.78;5032697;28;20183;-86
2023/08/13 00:50:58;;;;;;;5.80;5.18;;;;;;;22.25;92.32;99674.41;5032308;28;20552;-86
2023/08/13 00:53:24;;;;;;;7.95;5.95;;;;;;;22.22;92.61;99672.06;5014494;28;20021;-85
2023/08/13 00:55:50;;;;;;;7.20;6.10;;;;;;;22.20;92.88;99676.66;5032617;28;20041;-85
2023/08/13 00:58:17;;;;;;;7.40;6.30;;;;;;;22.12;92.75;99665.91;5032267;28;20029;-85
2023/08/13 01:00:42;;;;;;;7.78;6.20;;;;;;;22.05;93.00;99656.88;5032254;28;20495;-86
2023/08/13 01:03:08;;;;;;;7.22;6.53;;;;;;;21.96;93.55;99653.28;5032195;28;20053;-86
2023/08/13 01:05:57;;;;;;;7.90;6.18;;;;;;;21.98;93.97;99666.38;5031967;28;20090;-85
2023/08/13 01:08:35;;;;;;;9.18;5.90;;;;;;;21.92;93.48;99662.50;5032184;28;20079;-86
2023/08/13 01:11:09;;;;;;;7.55;6.35;;;;;;;21.95;93.82;99674.59;5032444;28;20530;-85
2023/08/13 01:13:43;;;;;;;7.30;6.00;;;;;;;21.88;94.87;99685.81;4989944;28;20042;-85
2023/08/13 01:16:09;;;;;;;7.20;6.28;;;;;;;21.83;95.22;99684.56;4990673;28;20173;-86
2023/08/13 01:18:39;;;;;;;9.73;6.90;;;;;;;21.80;95.08;99690.16;4973831;28;20125;-85
2023/08/13 01:21:05;;;;;;;7.53;6.70;;;;;;;21.64;95.82;99675.66;4974031;28;20648;-85
2023/08/13 01:23:32;;;;;;;9.60;7.43;;;;;;;21.60;96.30;99678.72;4973816;28;20046;-85
2023/08/13 01:26:02;;;;;;;7.50;6.38;;;;;;;21.57;95.63;99671.88;4990265;28;20027;-85
2023/08/13 01:28:39;;;;;;;6.87;6.17;;;;;;;21.58;95.83;99672.75;4989914;28;20073;-85
2023/08/13 01:31:11;;;;;;;7.57;6.32;;;;;;;21.59;95.52;99682.34;4990169;28;20289;-86
2023/08/13 01:33:40;;;;;;;8.10;7.28;;;;;;;21.66;95.90;99686.13;4989876;28;20042;-86
2023/08/13 01:36:06;;;;;;;7.55;6.47;;;;;;;21.58;96.73;99683.34;4973777;28;20030;-85
2023/08/13 01:38:33;;;;;;;6.43;5.82;;;;;;;21.62;96.60;99698.00;4989840;28;20038;-86
2023/08/13 01:41:02;;;;;;;6.22;5.63;;;;;;;21.60;96.45;99691.97;4990134;28;20508;-85
2023/08/13 01:43:27;;;;;;;7.72;5.43;;;;;;;21.54;96.59;99679.31;4975145;28;20490;-86
2023/08/13 01:45:53;;;;;;;6.63;5.72;;;;;;;21.58;96.61;99681.53;5031829;28;20022;-85
2023/08/13 01:48:18;;;;;;;6.28;5.68;;;;;;;21.66;96.97;99694.91;5031748;28;20444;-85
2023/08/13 01:50:44;;;;;;;8.05;6.07;;;;;;;21.66;96.71;99697.56;5013528;28;20049;-85
2023/08/13 01:53:09;;;;;;;6.90;5.80;;;;;;;21.54;96.98;99676.66;5031860;28;20080;-86
2023/08/13 01:55:35;;;;;;;6.43;5.80;;;;;;;21.67;97.02;99704.53;5031841;28;20427;-85
2023/08/13 01:58:00;;;;;;;8.07;5.22;;;;;;;21.65;97.52;99692.38;5031793;28;20076;-86
2023/08/13 02:00:26;;;;;;;5.97;5.38;;;;;;;21.55;97.39;99673.03;5031741;28;20056;-85
2023/08/13 02:02:51;;;;;;;5.97;5.47;;;;;;;21.64;97.00;99694.19;5031405;28;20440;-85
2023/08/13 02:05:16;;;;;;;7.18;5.63;;;;;;;21.63;97.49;99687.22;5031875;28;20049;-86
2023/08/13 02:07:42;;;;;;;6.80;5.72;;;;;;;21.65;97.84;99695.88;5013755;28;20029;-86
2023/08/13 02:10:08;;;;;;;8.02;5.57;;;;;;;21.52;97.84;99668.00;5013971;28;20025;-85
2023/08/13 02:12:33;;;;;;;8.05;5.90;;;;;;;21.63;98.06;99694.34;5031389;28;20032;-85
2023/08/13 02:14:59;;;;;;;6.57;5.28;;;;;;;21.49;98.53;99674.44;5031624;28;20496;-85
2023/08/13 02:17:24;;;;;;;7.15;6.45;;;;;;;21.46;99.18;99681.81;5017089;28;20029;-85
2023/08/13 02:19:50;;;;;;;6.40;5.80;;;;;;;21.39;99.38;99686.81;5034993;28;20067;-85
2023/08/13 02:22:15;;;;;;;7.05;5.60;;;;;;;21.36;99.46;99695.03;5017608;28;20028;-86
2023/08/13 02:24:40;;;;;;;6.10;5.60;;;;;;;21.36;99.28;99687.97;5017322;28;20129;-86
2023/08/13 02:27:06;;;;;;;6.38;5.35;;;;;;;21.23;99.01;99684.69;5035305;28;20413;-86
2023/08/13 02:29:31;;;;;;;6.75;5.47;;;;;;;21.34;99.66;99695.19;5017128;28;20037;-86
2023/08/13 02:31:57;;;;;;;6.00;5.35;;;;;;;21.21;100.00;99673.41;5034915;28;20030;-85
2023/08/13 02:34:23;;;;;;;6.75;6.05;;;;;;;21.31;100.00;99705.19;5017215;28;20056;-86
2023/08/13 02:36:49;;;;;;;6.97;6.03;;;;;;;21.12;100.00;99680.38;5034892;28;20484;-85
2023/08/13 02:39:14;;;;;;;7.10;6.00;;;;;;;21.17;100.00;99695.84;5017298;28;20026;-85
2023/08/13 02:41:39;;;;;;;5.95;5.35;;;;;;;21.07;100.00;99679.97;5017042;28;20472;-85
2023/08/13 02:44:05;;;;;;;6.03;5.40;;;;;;;21.13;100.00;99686.50;5034904;28;20026;-85
2023/08/13 02:46:30;;;;;;;7.50;5.57;;;;;;;21.21;100.00;99691.13;5034805;28;20530;-85
2023/08/13 02:48:56;;;;;;;6.35;5.50;;;;;;;21.12;100.00;99682.19;5016968;28;20092;-86
2023/08/13 02:51:23;;;;;;;8.15;5.25;;;;;;;21.28;100.00;99705.47;5016932;28;20065;-85
2023/08/13 02:53:48;;;;;;;6.47;5.10;;;;;;;21.27;100.00;99698.50;5016762;28;20064;-85
2023/08/13 02:56:14;;;;;;;6.07;5.47;;;;;;;21.22;100.00;99687.50;5034937;28;20025;-85
2023/08/13 02:58:39;;;;;;;6.80;4.65;;;;;;;21.31;100.00;99697.25;5034311;28;20037;-85
2023/08/13 03:01:05;;;;;;;5.60;5.10;;;;;;;21.34;100.00;99704.97;5034469;28;20030;-85
2023/08/13 03:03:30;;;;;;;5.35;4.57;;;;;;;21.40;100.00;99705.22;5034912;28;20025;-86
2023/08/13 03:05:56;;;;;;;5.03;4.53;;;;;;;21.41;100.00;99701.63;5034579;28;20051;-86
2023/08/13 03:08:22;;;;;;;5.20;4.50;;;;;;;21.35;100.00;99694.22;5034546;28;20037;-86
2023/08/13 03:10:47;;;;;;;5.15;4.22;;;;;;;21.46;100.00;99703.84;5034174;28;20381;-86
2023/08/13 03:13:12;;;;;;;4.90;4.28;;;;;;;21.37;100.00;99686.97;5034446;28;20033;-85
2023/08/13 03:15:38;;;;;;;4.43;4.03;;;;;;;21.36;100.00;99695.03;5034065;28;20473;-86
2023/08/13 03:18:03;;;;;;;4.85;3.95;;;;;;;21.46;100.00;99703.84;5034544;28;20198;-86
2023/08/13 03:20:29;;;;;;;5.60;4.00;;;;;;;21.52;100.00;99716.53;5034373;28;20061;-86
2023/08/13 03:22:55;;;;;;;4.70;4.15;;;;;;;21.58;100.00;99720.44;5033872;28;20098;-85
2023/08/13 03:25:20;;;;;;;4.20;3.78;;;;;;;21.53;100.00;99710.28;5016360;28;20112;-86
2023/08/13 03:27:47;;;;;;;9.32;4.10;;;;;;;21.55;100.00;99716.25;5033354;28;20128;-85
2023/08/13 03:30:12;;;;;;;4.35;4.00;;;;;;;21.44;100.00;99700.50;4991316;28;20038;-85
2023/08/13 03:32:38;;;;;;;4.47;4.07;;;;;;;21.58;100.00;99721.28;4975589;28;20057;-85
2023/08/13 03:35:03;;;;;;;5.50;4.35;;;;;;;21.60;100.00;99727.25;4975861;28;20031;-85
2023/08/13 03:37:29;;;;;;;8.52;4.13;;;;;;;21.61;100.00;99734.22;4992160;28;20038;-86
2023/08/13 03:39:54;;;;;;;4.22;3.83;;;;;;;21.61;100.00;99722.78;4991888;28;20062;-85
2023/08/13 03:42:19;;;;;;;4.25;3.85;;;;;;;21.55;100.00;99710.94;4992280;28;20056;-86
2023/08/13 03:44:45;;;;;;;5.03;4.30;;;;;;;21.63;100.00;99731.47;4975388;28;20026;-85
2023/08/13 03:47:10;;;;;;;4.85;3.70;;;;;;;21.53;100.00;99717.34;4991870;28;20088;-86
2023/08/13 03:49:36;;;;;;;4.10;3.70;;;;;;;21.57;100.00;99724.06;4991289;28;20046;-86
2023/08/13 03:52:01;;;;;;;5.43;3.60;;;;;;;21.60;100.00;99723.78;4975417;28;20030;-86
2023/08/13 03:54:27;;;;;;;4.70;3.78;;;;;;;21.55;100.00;99710.94;4992050;28;20042;-85
2023/08/13 03:56:52;;;;;;;4.00;3.60;;;;;;;21.74;100.00;99739.25;4975233;28;20069;-86
2023/08/13 03:59:17;;;;;;;4.25;3.90;;;;;;;21.70;100.00;99724.63;4991950;28;20038;-85
2023/08/13 04:01:43;;;;;;;3.53;3.22;;;;;;;21.83;100.00;99746.38;4991327;28;20401;-86
2023/08/13 04:04:09;;;;;;;4.32;3.88;;;;;;;21.87;100.00;99746.94;4991662;28;20413;-85
2023/08/13 04:06:34;;;;;;;4.07;3.67;;;;;;;21.86;100.00;99735.47;4977598;28;20033;-85
2023/08/13 04:08:59;;;;;;;4.20;3.60;;;;;;;21.86;100.00;99731.97;5033149;28;20087;-86
2023/08/13 04:11:25;;;;;;;4.18;3.78;;;;;;;21.82;100.00;99723.47;5015418;28;20033;-86
2023/08/13 04:13:50;;;;;;;4.47;4.07;;;;;;;22.00;100.00;99738.69;5032926;28;20033;-85
2023/08/13 04:16:15;;;;;;;3.88;3.50;;;;;;;22.30;100.00;99724.41;5015286;28;20025;-86
2023/08/13 04:18:41;;;;;;;4.78;3.45;;;;;;;22.77;100.00;99733.13;5033316;28;20034;-85
2023/08/13 04:21:06;;;;;;;4.78;3.85;;;;;;;22.85;99.39;99705.84;5033197;28;20029;-86
2023/08/13 04:23:31;;;;;;;6.45;3.90;;;;;;;22.94;98.72;99697.00;5010573;28;20673;-86
2023/08/13 04:25:57;;;;;;;4.10;3.70;;;;;;;23.07;98.87;99732.00;5010532;28;20401;-86
2023/08/13 04:28:22;;;;;;;4.32;3.65;;;;;;;23.01;98.87;99713.19;5010785;28;20042;-86
2023/08/13 04:30:47;;;;;;;4.13;3.72;;;;;;;23.10;98.75;99737.03;5010451;28;20189;-85
2023/08/13 04:33:13;;;;;;;4.38;4.00;;;;;;;23.10;98.95;99745.00;5010738;28;20046;-86
2023/08/13 04:35:38;;;;;;;4.15;3.75;;;;;;;22.95;99.36;99727.06;5010397;28;20030;-85
2023/08/13 04:38:04;;;;;;;4.78;4.32;;;;;;;23.01;99.49;99742.41;5010217;28;20477;-85
2023/08/13 04:40:29;;;;;;;4.43;4.03;;;;;;;22.89;100.00;99745.22;5010401;28;20623;-86
2023/08/13 04:42:54;;;;;;;4.30;3.63;;;;;;;22.71;100.00;99733.69;5010280;28;20042;-85
2023/08/13 04:45:20;;;;;;;4.72;3.60;;;;;;;22.58;100.00;99728.72;5010294;28;20120;-86
2023/08/13 04:47:45;;;;;;;3.67;3.38;;;;;;;22.59;100.00;99742.88;5010188;28;20088;-86
2023/08/13 04:50:13;;;;;;;4.18;3.78;;;;;;;22.42;100.00;99733.84;5010048;28;20452;-86
2023/08/13 04:52:38;;;;;;;4.22;3.83;;;;;;;22.40;100.00;99739.28;5010040;28;20392;-85
2023/08/13 04:55:04;;;;;;;3.85;3.45;;;;;;;22.40;100.00;99752.56;5026501;28;20045;-86
2023/08/13 04:57:29;;;;;;;4.63;3.95;;;;;;;22.50;100.00;99762.31;5032441;28;20048;-86
2023/08/13 04:59:54;;;;;;;5.25;4.25;;;;;;;23.05;100.00;99757.91;5032041;28;20374;-86
2023/08/13 05:02:20;;;;;;;3.65;3.20;;;;;;;24.35;97.93;99749.38;5014604;28;20025;-86
2023/08/13 05:04:45;;;;;;;3.53;3.22;;;;;;;25.82;91.73;99753.38;5032205;28;20030;-86
2023/08/13 05:07:10;;;;;;;4.15;3.55;;;;;;;26.73;87.00;99749.56;5032309;28;20081;-86
2023/08/13 05:09:36;;;;;;;5.45;3.50;;;;;;;27.17;84.52;99761.59;5014544;28;20056;-86
2023/08/13 05:12:01;;;;;;;4.65;4.05;;;;;;;26.59;84.66;99750.31;5032022;28;20384;-86
2023/08/13 05:14:26;;;;;;;4.13;3.70;;;;;;;25.99;86.67;99774.72;5031890;28;20421;-86
2023/08/13 05:16:54;;;;;;;3.60;3.30;;;;;;;25.41;89.09;99775.66;5014304;28;20040;-86
2023/08/13 05:19:20;;;;;;;4.18;3.78;;;;;;;24.89;90.94;99766.00;5032228;28;20488;-86
2023/08/13 05:21:45;;;;;;;3.80;3.47;;;;;;;24.62;92.40;99775.88;5031933;28;20060;-86
2023/08/13 05:24:10;;;;;;;5.55;3.92;;;;;;;24.60;92.70;99785.00;5032101;28;20090;-86
2023/08/13 05:26:36;;;;;;;4.43;4.03;;;;;;;25.32;91.23;99788.97;5031789;28;20057;-86
2023/08/13 05:29:01;;;;;;;4.78;3.85;;;;;;;26.00;88.46;99774.59;5031755;28;20033;-86
2023/08/13 05:31:26;;;;;;;5.18;3.80;;;;;;;26.48;86.88;99791.56;5032055;28;20033;-86
2023/08/13 05:33:53;;;;;;;3.72;3.42;;;;;;;26.54;87.21;99782.84;5031817;28;20037;-86
2023/08/13 05:36:19;;;;;;;4.00;3.60;;;;;;;26.50;86.94;99753.97;5032019;28;20483;-86
2023/08/13 05:38:44;;;;;;;4.10;3.65;;;;;;;26.74;86.21;99782.47;5031697;28;20064;-86
2023/08/13 05:41:09;;;;;;;4.20;3.80;;;;;;;26.94;85.38;99773.03;5032048;28;20396;-86
2023/08/13 05:43:35;;;;;;;4.25;3.53;;;;;;;27.50;83.35;99773.75;5013990;28;20041;-86
2023/08/13 05:46:00;;;;;;;4.72;3.78;;;;;;;28.40;80.67;99774.84;5031794;28;20032;-86
2023/08/13 05:48:25;;;;;;;4.07;3.50;;;;;;;28.90;79.58;99786.69;5032062;28;20030;-86
2023/08/13 05:50:51;;;;;;;4.88;3.88;;;;;;;28.68;79.15;99789.28;5012828;28;20052;-86
2023/08/13 05:53:16;;;;;;;4.05;3.55;;;;;;;28.21;80.08;99784.25;5016307;28;20022;-86
2023/08/13 05:55:41;;;;;;;4.28;3.60;;;;;;;27.67;81.61;99787.00;5015951;28;20026;-86
2023/08/13 05:58:07;;;;;;;5.00;3.50;;;;;;;27.26;83.22;99777.44;5014612;28;20399;-86
2023/08/13 06:00:32;;;;;;;5.47;4.05;;;;;;;27.21;83.91;99778.94;5016116;28;20083;-85
2023/08/13 06:02:58;;;;;;;4.53;3.88;;;;;;;27.47;83.98;99789.31;5015797;28;20041;-85
2023/08/13 06:05:23;;;;;;;3.92;3.60;;;;;;;27.57;83.30;99774.69;5015939;28;20030;-85
2023/08/13 06:07:48;;;;;;;3.83;3.20;;;;;;;27.88;83.24;99797.09;5015635;28;20031;-85
2023/08/13 06:10:14;;;;;;;4.63;3.92;;;;;;;28.07;82.61;99805.47;5015763;28;20029;-85
2023/08/13 06:12:39;;;;;;;4.55;3.20;;;;;;;28.06;81.75;99798.44;5014318;28;20026;-85
2023/08/13 06:15:05;;;;;;;4.38;3.97;;;;;;;27.82;81.97;99794.13;5015339;28;20040;-86
2023/08/13 06:17:30;;;;;;;4.03;3.72;;;;;;;27.78;82.88;99795.50;5015803;28;20112;-85
2023/08/13 06:19:56;;;;;;;4.07;3.78;;;;;;;27.96;82.79;99805.88;5015533;28;20490;-85
2023/08/13 06:22:21;;;;;;;4.05;3.65;;;;;;;28.13;82.88;99808.41;5015599;28;20459;-85
2023/08/13 06:24:47;;;;;;;3.90;3.60;;;;;;;28.21;81.70;99785.06;5015319;28;20041;-86
2023/08/13 06:27:13;;;;;;;4.07;3.63;;;;;;;28.45;81.31;99800.09;5015418;28;20026;-86
2023/08/13 06:29:38;;;;;;;3.72;3.42;;;;;;;28.67;80.66;99810.94;5013795;28;20034;-86
2023/08/13 06:32:03;;;;;;;5.25;3.60;;;;;;;28.83;79.82;99800.03;5013952;28;20030;-85
2023/08/13 06:34:29;;;;;;;5.75;4.10;;;;;;;29.20;79.48;99817.84;5014461;28;20048;-86
2023/08/13 06:36:54;;;;;;;4.50;4.10;;;;;;;29.47;78.26;99802.06;5015131;28;20075;-86
2023/08/13 06:39:21;;;;;;;3.83;3.53;;;;;;;29.77;77.68;99800.09;5013884;28;20449;-86
2023/08/13 06:41:47;;;;;;;3.63;3.33;;;;;;;29.91;76.69;99818.00;5014937;28;20025;-86
2023/08/13 06:44:18;;;;;;;4.50;3.30;;;;;;;29.73;77.16;99823.81;5014976;28;20034;-86
2023/08/13 06:46:44;;;;;;;3.63;3.42;;;;;;;29.40;77.36;99817.25;5015282;28;20025;-86
2023/08/13 06:49:09;;;;;;;3.63;3.35;;;;;;;29.18;78.30;99825.25;5013522;28;20421;-86
2023/08/13 06:51:34;;;;;;;4.20;3.80;;;;;;;28.92;78.87;99828.38;5013651;28;20026;-86
2023/08/13 06:54:00;;;;;;;4.22;3.45;;;;;;;28.74;79.97;99826.09;5014732;28;20131;-86
2023/08/13 06:56:25;;;;;;;4.55;3.90;;;;;;;28.58;80.04;99835.13;5014852;28;20026;-86
2023/08/13 06:58:50;;;;;;;4.60;4.20;;;;;;;28.36;81.35;99833.34;5014571;28;20022;-86
2023/08/13 07:01:16;;;;;;;3.80;3.50;;;;;;;28.16;81.38;99829.50;5014620;28;20041;-86
2023/08/13 07:03:41;;;;;;;3.97;3.67;;;;;;;28.00;81.89;99838.47;5014721;28;20030;-86
2023/08/13 07:06:07;;;;;;;4.22;3.83;;;;;;;27.84;82.95;99842.09;5014633;28;20149;-86
2023/08/13 07:08:32;;;;;;;3.92;3.63;;;;;;;27.70;83.93;99832.16;5013515;28;20088;-86
2023/08/13 07:10:59;;;;;;;4.03;3.65;;;;;;;27.84;84.14;99844.78;5014395;28;20022;-86
2023/08/13 07:13:25;;;;;;;4.32;3.95;;;;;;;28.15;84.11;99860.78;5014553;28;20531;-85
2023/08/13 07:15:51;;;;;;;5.13;4.20;;;;;;;28.24;83.14;99845.47;5013160;28;20018;-86
2023/08/13 07:18:16;;;;;;;4.15;3.75;;;;;;;28.51;82.28;99842.22;5013369;28;20045;-86
2023/08/13 07:20:42;;;;;;;4.72;4.32;;;;;;;28.40;81.36;99818.59;5013209;28;20145;-86
2023/08/13 07:23:08;;;;;;;4.35;4.05;;;;;;;28.62;81.78;99837.47;5012679;28;20030;-86
2023/08/13 07:25:34;;;;;;;3.72;3.42;;;;;;;29.08;80.74;99836.28;5014368;28;20026;-86
2023/08/13 07:28:00;;;;;;;3.75;3.45;;;;;;;29.71;79.04;99858.09;5014038;28;20033;-86
2023/08/13 07:30:25;;;;;;;3.92;3.63;;;;;;;30.63;77.12;99854.56;5014417;28;20116;-86
2023/08/13 07:32:51;;;;;;;3.83;3.53;;;;;;;31.84;74.90;99856.81;5014071;28;20088;-86
2023/08/13 07:35:16;;;;;;;4.38;3.97;;;;;;;33.55;70.47;99846.81;5013008;28;20025;-86
2023/08/13 07:37:42;;;;;;;3.80;3.50;;;;;;;34.98;66.96;99838.81;5014163;28;20488;-86
2023/08/13 07:40:08;;;;;;;4.30;3.20;;;;;;;35.87;62.88;99851.81;5012597;28;20029;-84
2023/08/13 07:42:34;;;;;;;3.15;2.95;;;;;;;36.64;60.37;99855.34;5014270;28;20683;-84
2023/08/13 07:45:00;;;;;;;3.50;3.20;;;;;;;37.50;59.10;99863.69;5012639;28;20029;-84
2023/08/13 07:47:25;;;;;;;3.30;3.00;;;;;;;38.22;57.25;99846.72;5012649;28;20037;-85
2023/08/13 07:49:50;;;;;;;3.05;2.75;;;;;;;38.59;55.99;99847.03;5022864;28;20049;-85
2023/08/13 07:52:16;;;;;;;3.10;2.80;;;;;;;38.01;57.48;99855.63;5014350;28;20029;-85
2023/08/13 07:54:41;;;;;;;2.70;2.50;;;;;;;37.04;57.56;99842.91;5015264;28;20033;-85
2023/08/13 07:57:07;;;;;;;3.38;3.15;;;;;;;35.96;59.45;99851.25;5031801;28;20506;-85
2023/08/13 07:59:32;;;;;;;3.60;2.72;;;;;;;35.40;60.89;99859.75;5014650;28;20126;-85
2023/08/13 08:01:59;;;;;;;3.50;3.20;;;;;;;34.95;61.79;99850.03;5031966;28;20026;-85
2023/08/13 08:04:24;;;;;;;3.30;3.10;;;;;;;34.88;63.42;99843.03;5032403;28;20044;-85
2023/08/13 08:06:50;;;;;;;3.35;3.10;;;;;;;35.03;62.37;99837.31;5014543;28;20476;-85
2023/08/13 08:09:15;;;;;;;3.50;3.30;;;;;;;35.14;61.72;99844.63;5033260;28;20487;-85
2023/08/13 08:11:40;;;;;;;4.47;3.20;;;;;;;34.73;62.04;99846.13;5033094;28;20025;-85
2023/08/13 08:14:06;;;;;;;3.33;3.13;;;;;;;34.17;63.53;99842.44;5031873;28;20476;-85
2023/08/13 08:16:31;;;;;;;3.03;2.80;;;;;;;34.09;64.08;99829.25;5031719;28;20107;-85
2023/08/13 08:18:56;;;;;;;3.75;2.75;;;;;;;34.65;63.26;99857.25;5032231;28;20040;-85
2023/08/13 08:21:22;;;;;;;3.25;3.05;;;;;;;34.83;62.60;99861.84;5033122;28;20396;-85
2023/08/13 08:23:47;;;;;;;3.03;2.83;;;;;;;34.52;62.84;99851.97;5015123;28;20492;-85
2023/08/13 08:26:12;;;;;;;3.28;2.97;;;;;;;34.22;64.00;99856.16;5010172;28;20366;-85
2023/08/13 08:28:38;;;;;;;3.35;3.05;;;;;;;33.67;64.12;99857.75;5010667;28;20774;-85
2023/08/13 08:31:03;;;;;;;3.15;2.95;;;;;;;33.28;64.18;99854.19;5010157;28;20070;-85
2023/08/13 08:33:28;;;;;;;3.22;2.92;;;;;;;32.87;65.65;99859.91;5010591;28;20128;-85
2023/08/13 08:35:54;;;;;;;2.80;2.60;;;;;;;32.42;67.25;99840.91;5018124;28;20034;-85
2023/08/13 08:38:19;;;;;;;2.88;2.67;;;;;;;32.17;68.16;99856.84;5010427;28;20460;-85
2023/08/13 08:40:48;;;;;;;3.17;2.97;;;;;;;31.91;68.98;99852.28;4990529;28;20183;-85
2023/08/13 08:43:15;;;;;;;3.58;3.08;;;;;;;31.44;69.63;99841.38;4990702;28;20042;-85
2023/08/13 08:45:41;;;;;;;3.30;3.10;;;;;;;30.94;70.98;99829.97;4974408;28;20445;-85
2023/08/13 08:48:07;;;;;;;3.35;3.08;;;;;;;30.54;72.39;99842.28;4985327;28;20420;-85
2023/08/13 08:50:36;;;;;;;3.70;3.33;;;;;;;30.20;73.51;99862.69;4980012;28;20042;-85
2023/08/13 08:53:02;;;;;;;3.80;3.50;;;;;;;29.83;74.78;99842.28;4987621;28;20035;-85
2023/08/13 08:55:28;;;;;;;3.67;3.28;;;;;;;29.65;76.50;99853.47;4974170;28;20046;-85
2023/08/13 08:57:56;;;;;;;3.88;3.17;;;;;;;29.43;77.14;99851.75;4990431;28;20034;-85
2023/08/13 09:00:21;;;;;;;3.83;3.50;;;;;;;29.31;78.21;99844.19;4989774;28;20038;-86
2023/08/13 09:02:46;;;;;;;4.05;3.65;;;;;;;29.33;78.39;99855.56;4989323;28;20659;-85
2023/08/13 09:05:12;;;;;;;3.58;3.28;;;;;;;29.38;78.32;99846.94;4990306;28;20039;-85
2023/08/13 09:07:44;;;;;;;3.55;3.25;;;;;;;29.52;77.80;99843.38;4973902;28;20022;-85
2023/08/13 09:10:10;;;;;;;3.47;3.17;;;;;;;29.75;77.92;99847.78;4989854;28;20030;-85
2023/08/13 09:12:40;;;;;;;3.65;3.40;;;;;;;29.88;77.08;99842.56;5025524;28;20042;-85
2023/08/13 09:15:08;;;;;;;3.97;3.67;;;;;;;30.03;77.20;99843.31;5031590;28;20044;-85
2023/08/13 09:17:34;;;;;;;3.65;3.35;;;;;;;29.94;76.39;99814.94;5031759;28;20479;-85
2023/08/13 09:20:19;;;;;;;3.53;3.20;;;;;;;29.95;75.97;99826.50;5031517;28;20029;-85
2023/08/13 09:22:49;;;;;;;3.80;3.50;;;;;;;29.90;76.87;99845.03;5032026;28;20117;-85
2023/08/13 09:25:16;;;;;;;3.92;3.58;;;;;;;29.82;77.05;99849.50;5031740;28;20598;-85
2023/08/13 09:27:42;;;;;;;3.80;3.40;;;;;;;29.69;77.58;99830.59;5032114;28;20029;-85
2023/08/13 09:30:18;;;;;;;3.35;3.15;;;;;;;29.78;77.17;99839.34;5013376;28;20025;-85
2023/08/13 09:32:45;;;;;;;4.15;3.30;;;;;;;29.66;76.83;99839.00;5031838;28;20034;-85
2023/08/13 09:35:11;;;;;;;3.75;3.45;;;;;;;29.49;76.93;99838.38;5031773;28;20025;-86
2023/08/13 09:37:36;;;;;;;2.97;2.78;;;;;;;29.41;78.08;99838.50;5014398;28;20022;-85
2023/08/13 09:40:02;;;;;;;3.45;3.22;;;;;;;29.32;78.89;99839.63;5014142;28;20022;-85
2023/08/13 09:42:31;;;;;;;4.47;3.50;;;;;;;29.21;80.21;99824.88;5031974;28;20420;-85
2023/08/13 09:44:58;;;;;;;4.35;3.95;;;;;;;29.24;80.07;99832.53;5031615;28;20492;-85
2023/08/13 09:47:25;;;;;;;4.63;4.22;;;;;;;29.18;79.41;99822.56;5031734;28;20179;-85
2023/08/13 09:49:55;;;;;;;4.90;4.47;;;;;;;29.19;76.82;99842.16;5013727;28;20077;-85
2023/08/13 09:52:25;;;;;;;3.50;3.20;;;;;;;29.05;77.52;99836.63;5031812;28;20033;-86
2023/08/13 09:54:55;;;;;;;4.05;3.53;;;;;;;29.01;78.21;99835.34;5031763;28;20116;-85
2023/08/13 09:57:24;;;;;;;4.20;3.80;;;;;;;29.02;79.18;99828.13;5032065;28;20030;-85
2023/08/13 09:59:50;;;;;;;3.70;3.47;;;;;;;29.15;77.79;99836.34;5031864;28;20033;-85
2023/08/13 10:02:18;;;;;;;3.10;2.90;;;;;;;29.15;78.96;99832.81;5013875;28;20029;-85
2023/08/13 10:04:44;;;;;;;3.38;3.15;;;;;;;29.14;79.12;99823.94;5031761;28;20052;-85
2023/08/13 10:07:10;;;;;;;3.60;3.30;;;;;;;29.26;78.90;99835.03;5031458;28;20072;-85
2023/08/13 10:09:38;;;;;;;3.67;3.38;;;;;;;29.23;78.02;99822.81;5013930;28;20528;-85
2023/08/13 10:12:09;;;;;;;3.75;3.42;;;;;;;29.17;77.31;99823.59;5013543;28;20026;-85
2023/08/13 10:14:35;;;;;;;3.70;3.40;;;;;;;29.21;77.69;99846.34;5031474;28;20029;-84
2023/08/13 10:17:06;;;;;;;4.03;3.67;;;;;;;29.06;77.83;99826.75;5013702;28;20499;-84
2023/08/13 10:19:36;;;;;;;3.70;3.42;;;;;;;28.94;78.01;99817.47;5031630;28;20036;-84
2023/08/13 10:22:02;;;;;;;3.47;3.28;;;;;;;29.06;79.65;99843.66;5013606;28;20031;-82
2023/08/13 10:24:30;;;;;;;3.90;3.60;;;;;;;29.06;79.18;99832.09;5013804;28;20033;-82
2023/08/13 10:26:59;;;;;;;4.15;3.75;;;;;;;29.17;78.83;99844.22;5031335;28;20025;-84
2023/08/13 10:29:35;;;;;;;3.85;3.55;;;;;;;29.15;78.44;99822.09;5013610;28;20064;-84
2023/08/13 10:32:11;;;;;;;4.07;3.58;;;;;;;29.26;79.52;99845.78;5013539;28;20030;-84
2023/08/13 10:34:47;;;;;;;3.85;3.55;;;;;;;29.32;80.36;99855.72;5031450;28;20079;-85
2023/08/13 10:37:18;;;;;;;4.43;3.90;;;;;;;29.20;78.77;99833.94;5032557;28;20025;-85
2023/08/13 10:39:45;;;;;;;3.60;3.30;;;;;;;29.26;78.84;99833.19;5017422;28;20064;-84
2023/08/13 10:42:37;;;;;;;4.22;3.92;;;;;;;29.35;78.22;99850.00;5034869;28;20079;-85
2023/08/13 10:45:12;;;;;;;3.67;3.38;;;;;;;29.15;79.25;99830.16;5034700;28;20029;-84
2023/08/13 10:47:48;;;;;;;3.90;3.60;;;;;;;29.22;78.96;99849.84;5017037;28;20055;-84
2023/08/13 10:50:21;;;;;;;3.63;3.33;;;;;;;29.12;78.78;99855.50;5034560;28;20563;-84
2023/08/13 10:52:51;;;;;;;3.30;3.10;;;;;;;28.93;78.71;99829.22;5017071;28;20030;-84
2023/08/13 10:55:18;;;;;;;4.35;3.95;;;;;;;29.01;79.22;99850.59;5034520;28;20053;-84
2023/08/13 10:57:49;;;;;;;4.32;3.67;;;;;;;29.01;78.88;99851.44;5034738;28;20026;-85
2023/08/13 11:00:15;;;;;;;4.07;3.78;;;;;;;28.96;79.24;99839.56;5034374;28;20064;-85
2023/08/13 11:02:43;;;;;;;3.65;3.35;;;;;;;28.80;79.68;99838.75;5034785;28;20021;-85
2023/08/13 11:05:09;;;;;;;3.67;3.42;;;;;;;28.83;80.53;99843.75;5034435;28;20041;-85
2023/08/13 11:07:35;;;;;;;3.65;3.35;;;;;;;28.88;80.59;99835.13;5016835;28;20057;-85
2023/08/13 11:10:03;;;;;;;3.65;3.05;;;;;;;29.05;77.54;99863.44;5034270;28;20034;-85
2023/08/13 11:12:30;;;;;;;3.47;3.20;;;;;;;29.08;77.41;99849.69;5034320;28;20021;-85
2023/08/13 11:14:59;;;;;;;3.33;3.13;;;;;;;29.09;76.85;99845.97;5016475;28;20037;-85
2023/08/13 11:17:24;;;;;;;3.47;3.17;;;;;;;28.97;76.85;99826.00;5034177;28;20021;-85
2023/08/13 11:19:49;;;;;;;3.72;3.42;;;;;;;28.97;76.31;99841.28;5016641;28;20094;-84
2023/08/13 11:22:17;;;;;;;3.70;3.40;;;;;;;28.81;76.97;99840.41;5033928;28;20030;-84
2023/08/13 11:24:45;;;;;;;3.10;2.90;;;;;;;28.48;77.04;99834.53;5034220;28;20112;-84
2023/08/13 11:27:14;;;;;;;3.10;2.90;;;;;;;28.24;78.52;99816.03;5033849;28;20028;-84
2023/08/13 11:29:40;;;;;;;3.78;3.17;;;;;;;28.07;78.21;99810.81;5033985;28;20033;-85